createdAt,value
2022-09-20T00:00:08.836Z,99.99
2022-09-20T00:01:08.898Z,99.99
2022-09-20T00:02:08.801Z,99.99
2022-09-20T00:03:08.784Z,99.99
2022-09-20T00:04:09.067Z,99.99
2022-09-20T00:05:08.832Z,99.99
2022-09-20T00:06:08.760Z,99.99
2022-09-20T00:07:08.714Z,99.99
2022-09-20T00:08:08.696Z,99.99
2022-09-20T00:09:08.676Z,99.99
2022-09-20T00:10:08.658Z,99.99
2022-09-20T00:11:08.670Z,99.99
2022-09-20T00:12:08.625Z,99.99
2022-09-20T00:13:08.631Z,99.99
2022-09-20T00:14:08.720Z,99.99
2022-09-20T00:15:08.574Z,99.99
2022-09-20T00:16:08.623Z,99.99
2022-09-20T00:17:08.541Z,99.99
2022-09-20T00:18:08.521Z,99.99
2022-09-20T00:19:08.990Z,99.99
2022-09-20T00:20:08.489Z,99.99
2022-09-20T00:21:08.494Z,99.99
2022-09-20T00:22:08.443Z,99.99
2022-09-20T00:23:09.435Z,99.99
2022-09-20T00:24:08.416Z,99.99
2022-09-20T00:25:08.405Z,99.99
2022-09-20T00:26:08.413Z,99.99
2022-09-20T00:27:08.367Z,99.99
2022-09-20T00:28:08.349Z,99.99
2022-09-20T00:29:08.334Z,99.99
2022-09-20T00:30:08.312Z,99.99
2022-09-20T00:31:08.325Z,99.99
2022-09-20T00:32:08.335Z,99.99
2022-09-20T00:33:08.264Z,99.99
2022-09-20T00:34:08.286Z,99.99
2022-09-20T00:35:08.228Z,99.99
2022-09-20T00:36:08.241Z,99.99
2022-09-20T00:37:08.191Z,99.99
2022-09-20T00:38:08.175Z,99.99
2022-09-20T00:39:08.156Z,99.99
2022-09-20T00:40:08.204Z,99.99
2022-09-20T00:41:08.153Z,99.99
2022-09-20T00:42:08.106Z,99.99
2022-09-20T00:43:08.085Z,99.99
2022-09-20T00:44:08.071Z,99.99
2022-09-20T00:45:08.049Z,99.99
2022-09-20T00:46:08.065Z,99.99
2022-09-20T00:47:08.042Z,99.99
2022-09-20T00:48:07.995Z,99.99
2022-09-20T00:49:08.015Z,99.99
2022-09-20T00:50:07.956Z,99.99
2022-09-20T00:51:07.937Z,99.99
2022-09-20T00:52:07.949Z,99.99
2022-09-20T00:53:07.905Z,99.99
2022-09-20T00:54:07.892Z,99.99
2022-09-20T00:55:07.869Z,99.99
2022-09-20T00:56:07.847Z,99.99
2022-09-20T00:57:07.860Z,99.99
2022-09-20T00:58:07.816Z,99.99
2022-09-20T00:59:07.792Z,99.99
2022-09-20T01:00:07.779Z,99.99
2022-09-20T01:01:07.814Z,99.99
2022-09-20T01:02:07.817Z,99.99
2022-09-20T01:03:07.729Z,99.99
2022-09-20T01:04:07.746Z,99.99
2022-09-20T01:05:07.692Z,99.99
2022-09-20T01:06:07.675Z,99.99
2022-09-20T01:07:07.682Z,99.99
2022-09-20T01:08:07.639Z,99.99
2022-09-20T01:09:07.633Z,99.99
2022-09-20T01:10:07.602Z,99.99
2022-09-20T01:11:07.589Z,99.99
2022-09-20T01:12:07.595Z,99.99
2022-09-20T01:13:07.552Z,99.99
2022-09-20T01:14:07.531Z,99.99
2022-09-20T01:15:07.515Z,99.99
2022-09-20T01:16:07.514Z,99.99
2022-09-20T01:17:07.506Z,99.99
2022-09-20T01:18:07.464Z,99.99
2022-09-20T01:19:07.510Z,99.99
2022-09-20T01:20:07.430Z,99.99
2022-09-20T01:21:07.414Z,99.99
2022-09-20T01:22:07.422Z,99.99
2022-09-20T01:23:07.377Z,99.99
2022-09-20T01:24:07.363Z,99.99
2022-09-20T01:25:07.343Z,99.99
2022-09-20T01:26:07.323Z,99.99
2022-09-20T01:27:07.331Z,99.99
2022-09-20T01:28:07.291Z,99.99
2022-09-20T01:29:07.268Z,99.99
2022-09-20T01:30:07.252Z,99.99
2022-09-20T01:31:07.234Z,99.99
2022-09-20T01:32:07.351Z,99.99
2022-09-20T01:33:07.200Z,99.99
2022-09-20T01:34:07.277Z,99.99
2022-09-20T01:35:07.191Z,99.99
2022-09-20T01:36:07.149Z,99.99
2022-09-20T01:37:07.161Z,99.99
2022-09-20T01:38:07.112Z,99.99
2022-09-20T01:39:07.100Z,99.99
2022-09-20T01:40:07.099Z,99.99
2022-09-20T01:41:07.065Z,99.99
2022-09-20T01:42:07.073Z,99.99
2022-09-20T01:43:07.024Z,99.99
2022-09-20T01:44:07.011Z,99.99
2022-09-20T01:45:06.987Z,99.99
2022-09-20T01:46:07.017Z,99.99
2022-09-20T01:47:06.979Z,99.99
2022-09-20T01:48:06.934Z,99.99
2022-09-20T01:49:06.980Z,99.99
2022-09-20T01:50:06.901Z,99.99
2022-09-20T01:51:06.884Z,99.99
2022-09-20T01:52:06.887Z,99.99
2022-09-20T01:53:06.848Z,99.99
2022-09-20T01:54:06.829Z,99.99
2022-09-20T01:55:06.812Z,99.99
2022-09-20T01:56:06.795Z,99.99
2022-09-20T01:57:06.798Z,99.99
2022-09-20T01:58:06.756Z,99.99
2022-09-20T01:59:23.033Z,99.99
2022-09-20T02:00:08.719Z,99.99
2022-09-20T02:01:06.750Z,99.99
2022-09-20T02:02:06.778Z,99.99
2022-09-20T02:03:06.665Z,99.99
2022-09-20T02:04:06.644Z,99.99
2022-09-20T02:05:06.626Z,99.99
2022-09-20T02:06:06.611Z,99.99
2022-09-20T02:07:06.622Z,99.99
2022-09-20T02:08:06.577Z,99.99
2022-09-20T02:09:06.559Z,99.99
2022-09-20T02:10:06.542Z,99.99
2022-09-20T02:11:06.521Z,99.99
2022-09-20T02:12:06.530Z,99.99
2022-09-20T02:13:06.488Z,99.99
2022-09-20T02:14:06.535Z,99.99
2022-09-20T02:15:06.451Z,99.99
2022-09-20T02:16:06.473Z,99.99
2022-09-20T02:17:06.440Z,99.99
2022-09-20T02:18:06.394Z,99.99
2022-09-20T02:19:06.375Z,99.99
2022-09-20T02:20:06.362Z,99.99
2022-09-20T02:21:06.343Z,99.99
2022-09-20T02:22:06.354Z,99.99
2022-09-20T02:23:06.377Z,99.99
2022-09-20T02:24:06.295Z,99.99
2022-09-20T02:25:06.272Z,99.99
2022-09-20T02:26:06.251Z,99.99
2022-09-20T02:27:06.263Z,99.99
2022-09-20T02:28:06.219Z,99.99
2022-09-20T02:29:06.247Z,99.99
2022-09-20T02:30:06.178Z,99.99
2022-09-20T02:31:06.164Z,99.99
2022-09-20T02:32:06.243Z,99.99
2022-09-20T02:33:06.125Z,99.99
2022-09-20T02:34:06.110Z,99.99
2022-09-20T02:35:06.089Z,99.99
2022-09-20T02:36:06.068Z,99.99
2022-09-20T02:37:06.082Z,99.99
2022-09-20T02:38:06.034Z,99.99
2022-09-20T02:39:06.045Z,99.99
2022-09-20T02:40:06.041Z,99.99
2022-09-20T02:41:06.009Z,99.99
2022-09-20T02:42:05.962Z,99.99
2022-09-20T02:43:05.943Z,99.99
2022-09-20T02:44:05.971Z,99.99
2022-09-20T02:45:05.906Z,99.99
2022-09-20T02:46:05.962Z,99.99
2022-09-20T02:47:05.871Z,99.99
2022-09-20T02:48:05.849Z,99.99
2022-09-20T02:49:05.829Z,99.99
2022-09-20T02:50:05.816Z,99.99
2022-09-20T02:51:05.829Z,99.99
2022-09-20T02:52:05.779Z,99.99
2022-09-20T02:53:05.765Z,99.99
2022-09-20T02:54:05.746Z,99.99
2022-09-20T02:55:05.724Z,99.99
2022-09-20T02:56:05.741Z,99.99
2022-09-20T02:57:05.693Z,99.99
2022-09-20T02:58:05.678Z,99.99
2022-09-20T02:59:05.748Z,99.99
2022-09-20T03:00:05.644Z,99.99
2022-09-20T03:01:05.703Z,99.99
2022-09-20T03:02:05.643Z,99.99
2022-09-20T03:03:05.586Z,99.99
2022-09-20T03:04:05.574Z,99.99
2022-09-20T03:05:05.560Z,99.99
2022-09-20T03:06:05.568Z,99.99
2022-09-20T03:07:05.520Z,99.99
2022-09-20T03:08:05.504Z,99.99
2022-09-20T03:09:05.485Z,99.99
2022-09-20T03:10:05.466Z,99.99
2022-09-20T03:11:05.477Z,99.99
2022-09-20T03:12:05.431Z,99.99
2022-09-20T03:13:05.413Z,99.99
2022-09-20T03:14:05.473Z,99.99
2022-09-20T03:15:05.375Z,99.99
2022-09-20T03:16:05.470Z,99.99
2022-09-20T03:17:05.390Z,99.99
2022-09-20T03:18:05.323Z,99.99
2022-09-20T03:19:05.307Z,99.99
2022-09-20T03:20:05.291Z,99.99
2022-09-20T03:21:05.299Z,99.99
2022-09-20T03:22:05.255Z,99.99
2022-09-20T03:23:05.240Z,99.99
2022-09-20T03:24:05.215Z,99.99
2022-09-20T03:25:05.200Z,99.99
2022-09-20T03:26:05.216Z,99.99
2022-09-20T03:27:05.166Z,99.99
2022-09-20T03:28:05.147Z,99.99
2022-09-20T03:29:05.173Z,99.99
2022-09-20T03:30:05.112Z,99.99
2022-09-20T03:31:05.121Z,99.99
2022-09-20T03:32:05.146Z,99.99
2022-09-20T03:33:05.062Z,99.99
2022-09-20T03:34:05.043Z,99.99
2022-09-20T03:35:05.018Z,99.99
2022-09-20T03:36:05.032Z,99.99
2022-09-20T03:37:04.987Z,99.99
2022-09-20T03:38:04.965Z,99.99
2022-09-20T03:39:04.948Z,99.99
2022-09-20T03:40:04.959Z,99.99
2022-09-20T03:41:04.944Z,99.99
2022-09-20T03:42:04.895Z,99.99
2022-09-20T03:43:04.880Z,99.99
2022-09-20T03:44:04.926Z,99.99
2022-09-20T03:45:04.919Z,99.99
2022-09-20T03:46:04.900Z,99.99
2022-09-20T03:47:04.807Z,99.99
2022-09-20T03:48:04.791Z,99.99
2022-09-20T03:49:04.775Z,99.99
2022-09-20T03:50:04.757Z,99.99
2022-09-20T03:51:04.761Z,99.99
2022-09-20T03:52:04.717Z,99.99
2022-09-20T03:53:04.699Z,99.99
2022-09-20T03:54:04.686Z,99.99
2022-09-20T03:55:04.664Z,99.99
2022-09-20T03:56:04.676Z,99.99
2022-09-20T03:57:04.626Z,99.99
2022-09-20T03:58:08.601Z,99.99
2022-09-20T03:59:05.662Z,99.99
2022-09-20T04:00:04.571Z,99.99
2022-09-20T04:01:04.611Z,99.99
2022-09-20T04:02:04.611Z,99.99
2022-09-20T04:03:04.524Z,99.99
2022-09-20T04:04:04.502Z,99.99
2022-09-20T04:05:04.511Z,99.99
2022-09-20T04:06:04.494Z,99.99
2022-09-20T04:07:04.443Z,99.99
2022-09-20T04:08:04.430Z,99.99
2022-09-20T04:09:04.420Z,99.99
2022-09-20T04:10:04.396Z,99.99
2022-09-20T04:11:04.407Z,99.99
2022-09-20T04:12:04.361Z,99.99
2022-09-20T04:13:04.342Z,99.99
2022-09-20T04:14:08.113Z,99.99
2022-09-20T04:15:06.305Z,99.99
2022-09-20T04:16:04.318Z,99.99
2022-09-20T04:17:04.330Z,99.99
2022-09-20T04:18:04.252Z,99.99
2022-09-20T04:19:04.345Z,99.99
2022-09-20T04:20:04.220Z,99.99
2022-09-20T04:21:04.228Z,99.99
2022-09-20T04:22:04.182Z,99.99
2022-09-20T04:23:04.163Z,99.99
2022-09-20T04:24:04.139Z,99.99
2022-09-20T04:25:04.128Z,99.99
2022-09-20T04:26:04.134Z,99.99
2022-09-20T04:27:04.090Z,99.99
2022-09-20T04:28:04.074Z,99.99
2022-09-20T04:29:04.053Z,99.99
2022-09-20T04:30:04.035Z,99.99
2022-09-20T04:31:04.045Z,99.99
2022-09-20T04:32:04.038Z,99.99
2022-09-20T04:33:03.983Z,99.99
2022-09-20T04:34:03.962Z,99.99
2022-09-20T04:35:03.942Z,99.99
2022-09-20T04:36:03.955Z,99.99
2022-09-20T04:37:03.916Z,99.99
2022-09-20T04:38:03.891Z,99.99
2022-09-20T04:39:03.874Z,99.99
2022-09-20T04:40:03.903Z,99.99
2022-09-20T04:41:03.867Z,99.99
2022-09-20T04:42:03.824Z,99.99
2022-09-20T04:43:03.807Z,99.99
2022-09-20T04:44:03.785Z,99.99
2022-09-20T04:45:03.765Z,99.99
2022-09-20T04:46:03.831Z,99.99
2022-09-20T04:47:03.733Z,99.99
2022-09-20T04:48:03.715Z,99.99
2022-09-20T04:49:03.693Z,99.99
2022-09-20T04:50:03.678Z,99.99
2022-09-20T04:51:03.694Z,99.99
2022-09-20T04:52:03.641Z,99.99
2022-09-20T04:53:03.625Z,99.99
2022-09-20T04:54:03.608Z,99.99
2022-09-20T04:55:03.594Z,99.99
2022-09-20T04:56:03.595Z,99.99
2022-09-20T04:57:04.558Z,99.99
2022-09-20T04:58:03.537Z,99.99
2022-09-20T04:59:03.522Z,99.99
2022-09-20T05:00:03.508Z,99.99
2022-09-20T05:01:03.592Z,99.99
2022-09-20T05:02:03.587Z,99.99
2022-09-20T05:03:03.450Z,99.99
2022-09-20T05:04:03.430Z,99.99
2022-09-20T05:05:03.414Z,99.99
2022-09-20T05:06:03.434Z,99.99
2022-09-20T05:07:03.374Z,99.99
2022-09-20T05:08:03.359Z,99.99
2022-09-20T05:09:03.343Z,99.99
2022-09-20T05:10:03.328Z,99.99
2022-09-20T05:11:03.333Z,99.99
2022-09-20T05:12:03.289Z,99.99
2022-09-20T05:13:03.273Z,99.99
2022-09-20T05:14:03.251Z,99.99
2022-09-20T05:15:03.234Z,99.99
2022-09-20T05:16:03.346Z,99.99
2022-09-20T05:17:03.234Z,99.99
2022-09-20T05:18:03.180Z,99.99
2022-09-20T05:19:03.166Z,99.99
2022-09-20T05:20:03.150Z,99.99
2022-09-20T05:21:03.156Z,99.99
2022-09-20T05:22:03.105Z,99.99
2022-09-20T05:23:03.093Z,99.99
2022-09-20T05:24:03.075Z,99.99
2022-09-20T05:25:03.058Z,99.99
2022-09-20T05:26:03.070Z,99.99
2022-09-20T05:27:03.019Z,99.99
2022-09-20T05:28:03.048Z,99.99
2022-09-20T05:29:02.986Z,99.99
2022-09-20T05:30:04.946Z,99.99
2022-09-20T05:31:03.976Z,99.99
2022-09-20T05:32:03.009Z,99.99
2022-09-20T05:33:02.914Z,99.99
2022-09-20T05:34:02.897Z,99.99
2022-09-20T05:35:02.881Z,99.99
2022-09-20T05:36:02.888Z,99.99
2022-09-20T05:37:02.845Z,99.99
2022-09-20T05:38:02.826Z,99.99
2022-09-20T05:39:03.641Z,99.99
2022-09-20T05:40:03.848Z,99.99
2022-09-20T05:41:02.797Z,99.99
2022-09-20T05:42:02.764Z,99.99
2022-09-20T05:43:02.737Z,99.99
2022-09-20T05:44:02.723Z,99.99
2022-09-20T05:45:02.703Z,99.99
2022-09-20T05:46:02.735Z,99.99
2022-09-20T05:47:02.669Z,99.99
2022-09-20T05:48:02.652Z,99.99
2022-09-20T05:49:02.628Z,99.99
2022-09-20T05:50:02.621Z,99.99
2022-09-20T05:51:03.796Z,99.99
2022-09-20T05:52:02.574Z,99.99
2022-09-20T05:53:02.559Z,99.99
2022-09-20T05:54:02.540Z,99.99
2022-09-20T05:55:02.520Z,99.99
2022-09-20T05:56:02.531Z,99.99
2022-09-20T05:57:02.486Z,99.99
2022-09-20T05:58:02.464Z,99.99
2022-09-20T05:59:02.456Z,99.99
2022-09-20T06:00:02.429Z,99.99
2022-09-20T06:01:02.485Z,99.99
2022-09-20T06:02:02.442Z,99.99
2022-09-20T06:03:02.375Z,99.99
2022-09-20T06:04:02.358Z,99.99
2022-09-20T06:05:02.348Z,99.99
2022-09-20T06:06:02.356Z,99.99
2022-09-20T06:07:02.303Z,99.99
2022-09-20T06:08:02.288Z,99.99
2022-09-20T06:09:02.269Z,99.99
2022-09-20T06:10:02.255Z,99.99
2022-09-20T06:11:02.266Z,99.99
2022-09-20T06:12:02.220Z,99.99
2022-09-20T06:13:02.203Z,99.99
2022-09-20T06:14:02.188Z,99.99
2022-09-20T06:15:02.165Z,99.99
2022-09-20T06:16:02.175Z,99.99
2022-09-20T06:17:02.126Z,99.99
2022-09-20T06:18:02.110Z,99.99
2022-09-20T06:19:02.093Z,99.99
2022-09-20T06:20:02.076Z,99.99
2022-09-20T06:21:02.088Z,99.99
2022-09-20T06:22:03.780Z,99.99
2022-09-20T06:23:03.025Z,99.99
2022-09-20T06:24:02.011Z,99.99
2022-09-20T06:25:01.997Z,99.90
2022-09-20T06:26:02.003Z,99.59
2022-09-20T06:27:01.958Z,99.13
2022-09-20T06:28:01.940Z,99.18
2022-09-20T06:29:01.930Z,99.13
2022-09-20T06:30:01.912Z,98.11
2022-09-20T06:31:01.995Z,98.00
2022-09-20T06:32:01.873Z,98.77
2022-09-20T06:33:01.851Z,97.70
2022-09-20T06:34:01.834Z,97.39
2022-09-20T06:35:01.820Z,97.49
2022-09-20T06:36:01.827Z,96.78
2022-09-20T06:37:01.786Z,96.73
2022-09-20T06:38:01.767Z,96.42
2022-09-20T06:39:01.749Z,96.67
2022-09-20T06:40:01.760Z,96.28
2022-09-20T06:41:01.741Z,95.46
2022-09-20T06:42:01.692Z,95.05
2022-09-20T06:43:01.679Z,93.92
2022-09-20T06:44:01.658Z,94.12
2022-09-20T06:45:01.637Z,94.08
2022-09-20T06:46:01.698Z,93.98
2022-09-20T06:47:01.603Z,93.92
2022-09-20T06:48:01.594Z,94.49
2022-09-20T06:49:01.578Z,94.23
2022-09-20T06:50:01.550Z,94.29
2022-09-20T06:51:01.566Z,94.12
2022-09-20T06:52:01.519Z,94.29
2022-09-20T06:53:01.498Z,94.23
2022-09-20T06:54:01.477Z,93.88
2022-09-20T06:55:01.465Z,94.08
2022-09-20T06:56:01.472Z,94.08
2022-09-20T06:57:01.425Z,94.49
2022-09-20T06:58:01.431Z,94.59
2022-09-20T06:59:01.389Z,94.59
2022-09-20T07:00:01.370Z,93.98
2022-09-20T07:01:01.415Z,94.33
2022-09-20T07:02:01.363Z,94.23
2022-09-20T07:03:01.316Z,93.92
2022-09-20T07:04:01.296Z,94.43
2022-09-20T07:05:01.279Z,94.33
2022-09-20T07:06:01.288Z,94.59
2022-09-20T07:07:01.241Z,93.63
2022-09-20T07:08:01.223Z,92.81
2022-09-20T07:09:01.209Z,93.32
2022-09-20T07:10:01.186Z,92.50
2022-09-20T07:11:01.205Z,93.32
2022-09-20T07:12:01.147Z,92.87
2022-09-20T07:13:01.132Z,92.50
2022-09-20T07:14:01.113Z,92.50
2022-09-20T07:15:01.089Z,92.30
2022-09-20T07:16:01.099Z,92.30
2022-09-20T07:17:01.047Z,92.46
2022-09-20T07:18:01.031Z,92.50
2022-09-20T07:19:01.011Z,92.19
2022-09-20T07:20:00.991Z,92.52
2022-09-20T07:21:00.999Z,90.26
2022-09-20T07:22:00.952Z,86.63
2022-09-20T07:23:00.932Z,85.05
2022-09-20T07:24:00.911Z,83.87
2022-09-20T07:25:00.889Z,79.49
2022-09-20T07:26:00.890Z,82.48
2022-09-20T07:27:00.843Z,83.23
2022-09-20T07:28:00.822Z,84.19
2022-09-20T07:29:00.802Z,84.47
2022-09-20T07:30:00.781Z,84.92
2022-09-20T07:31:00.787Z,86.76
2022-09-20T07:32:00.766Z,87.06
2022-09-20T07:33:00.714Z,86.76
2022-09-20T07:34:00.692Z,86.68
2022-09-20T07:35:00.668Z,84.03
2022-09-20T07:36:00.676Z,80.12
2022-09-20T07:37:00.621Z,80.36
2022-09-20T07:38:00.602Z,79.07
2022-09-20T07:39:00.577Z,76.73
2022-09-20T07:40:00.631Z,75.25
2022-09-20T07:41:00.563Z,75.76
2022-09-20T07:42:00.508Z,75.55
2022-09-20T07:43:00.491Z,76.13
2022-09-20T07:44:00.465Z,75.86
2022-09-20T07:45:00.447Z,76.37
2022-09-20T07:46:00.538Z,76.57
2022-09-20T07:47:00.406Z,77.04
2022-09-20T07:48:00.381Z,76.33
2022-09-20T07:49:00.367Z,76.71
2022-09-20T07:50:00.342Z,76.40
2022-09-20T07:51:00.344Z,76.87
2022-09-20T07:52:00.297Z,77.04
2022-09-20T07:53:00.277Z,74.77
2022-09-20T07:54:00.256Z,74.68
2022-09-20T07:55:00.233Z,76.23
2022-09-20T07:56:00.241Z,76.29
2022-09-20T07:57:00.196Z,76.84
2022-09-20T07:58:00.174Z,76.23
2022-09-20T07:59:00.153Z,76.67
2022-09-20T08:00:00.139Z,77.01
2022-09-20T08:01:00.194Z,78.67
2022-09-20T08:02:00.121Z,79.42
2022-09-20T08:03:00.086Z,79.66
2022-09-20T08:04:00.048Z,78.85
2022-09-20T08:05:00.026Z,79.63
2022-09-20T08:06:00.035Z,79.83
2022-09-20T08:06:59.984Z,80.98
2022-09-20T08:07:59.963Z,79.77
2022-09-20T08:08:59.938Z,80.31
2022-09-20T08:09:59.926Z,79.43
2022-09-20T08:10:59.920Z,80.35
2022-09-20T08:14:04.931Z,81.26
2022-09-20T08:14:09.445Z,80.72
2022-09-20T08:15:01.823Z,82.28
2022-09-20T08:15:59.792Z,82.20
2022-09-20T08:16:59.828Z,79.72
2022-09-20T08:17:59.751Z,80.58
2022-09-20T08:18:59.728Z,81.63
2022-09-20T08:19:59.703Z,80.65
2022-09-20T08:20:59.686Z,79.63
2022-09-20T08:21:59.686Z,77.93
2022-09-20T08:23:21.961Z,78.64
2022-09-20T08:24:01.624Z,78.94
2022-09-20T08:24:59.597Z,78.78
2022-09-20T08:25:59.577Z,78.44
2022-09-20T08:26:59.583Z,77.86
2022-09-20T08:27:59.533Z,78.44
2022-09-20T08:28:59.522Z,77.45
2022-09-20T08:29:59.493Z,77.69
2022-09-20T08:30:59.473Z,77.11
2022-09-20T08:31:59.507Z,76.56
2022-09-20T08:32:59.427Z,75.25
2022-09-20T08:33:59.407Z,73.36
2022-09-20T08:34:59.385Z,73.08
2022-09-20T08:35:59.371Z,70.46
2022-09-20T08:36:59.380Z,70.22
2022-09-20T08:39:57.271Z,70.09
2022-09-20T08:40:01.337Z,69.42
2022-09-20T08:40:59.273Z,68.95
2022-09-20T08:41:59.279Z,67.30
2022-09-20T08:42:59.236Z,67.14
2022-09-20T08:43:59.215Z,65.66
2022-09-20T08:44:59.407Z,65.26
2022-09-20T08:45:59.750Z,66.50
2022-09-20T08:46:59.185Z,66.80
2022-09-20T08:47:59.176Z,65.79
2022-09-20T08:48:59.120Z,67.63
2022-09-20T08:49:59.108Z,69.38
2022-09-20T08:50:59.086Z,68.21
2022-09-20T08:51:59.089Z,69.45
2022-09-20T08:53:00.508Z,70.29
2022-09-20T08:54:00.026Z,69.82
2022-09-20T08:54:59.012Z,70.25
2022-09-20T08:55:58.985Z,70.53
2022-09-20T08:56:58.994Z,71.17
2022-09-20T08:57:58.950Z,73.52
2022-09-20T08:58:58.930Z,74.30
2022-09-20T08:59:58.912Z,73.63
2022-09-20T09:00:58.945Z,75.12
2022-09-20T09:01:58.927Z,75.79
2022-09-20T09:02:58.855Z,76.24
2022-09-20T09:03:58.839Z,77.56
2022-09-20T09:04:58.818Z,77.90
2022-09-20T09:05:58.811Z,79.36
2022-09-20T09:06:58.808Z,78.99
2022-09-20T09:07:58.755Z,79.94
2022-09-20T09:08:58.737Z,81.37
2022-09-20T09:09:58.715Z,80.55
2022-09-20T09:10:58.711Z,82.52
2022-09-20T09:11:58.707Z,81.81
2022-09-20T09:12:58.657Z,83.03
2022-09-20T09:13:58.640Z,82.65
2022-09-20T09:14:58.616Z,79.69
2022-09-20T09:15:58.596Z,78.74
2022-09-20T09:16:58.666Z,78.66
2022-09-20T09:17:58.556Z,77.65
2022-09-20T09:18:58.533Z,77.75
2022-09-20T09:19:58.517Z,77.14
2022-09-20T09:20:58.499Z,76.16
2022-09-20T09:21:58.502Z,74.98
2022-09-20T09:22:58.458Z,73.46
2022-09-20T09:23:58.435Z,70.69
2022-09-20T09:24:58.420Z,71.73
2022-09-20T09:25:58.396Z,69.55
2022-09-20T09:26:58.407Z,68.15
2022-09-20T09:27:58.366Z,66.60
2022-09-20T09:28:58.341Z,66.20
2022-09-20T09:29:58.330Z,64.56
2022-09-20T09:30:58.308Z,64.79
2022-09-20T09:31:58.340Z,63.02
2022-09-20T09:32:58.266Z,65.87
2022-09-20T09:33:58.250Z,62.32
2022-09-20T09:34:58.227Z,64.93
2022-09-20T09:35:58.216Z,65.03
2022-09-20T09:36:58.219Z,62.99
2022-09-20T09:37:58.172Z,62.92
2022-09-20T09:38:58.156Z,64.16
2022-09-20T09:39:58.175Z,62.62
2022-09-20T09:40:58.115Z,63.18
2022-09-20T09:41:58.122Z,64.95
2022-09-20T09:42:58.074Z,64.86
2022-09-20T09:43:58.053Z,66.30
2022-09-20T09:44:58.039Z,65.52
2022-09-20T09:45:58.051Z,67.67
2022-09-20T09:46:58.020Z,66.46
2022-09-20T09:47:57.979Z,67.47
2022-09-20T09:48:57.964Z,66.86
2022-09-20T09:50:01.681Z,67.40
2022-09-20T09:50:59.923Z,66.82
2022-09-20T09:51:57.929Z,67.40
2022-09-20T09:52:57.880Z,68.54
2022-09-20T09:53:57.862Z,69.48
2022-09-20T09:54:58.418Z,69.55
2022-09-20T09:55:57.821Z,68.01
2022-09-20T09:56:57.830Z,66.89
2022-09-20T09:57:57.790Z,66.46
2022-09-20T09:58:57.783Z,70.42
2022-09-20T09:59:57.751Z,69.38
2022-09-20T10:00:57.766Z,67.53
2022-09-20T10:01:57.807Z,67.66
2022-09-20T10:02:57.692Z,68.71
2022-09-20T10:03:57.676Z,68.10
2022-09-20T10:04:57.653Z,67.53
2022-09-20T10:05:57.639Z,67.73
2022-09-20T10:06:57.653Z,67.53
2022-09-20T10:07:57.601Z,68.17
2022-09-20T10:08:57.577Z,69.28
2022-09-20T10:09:57.556Z,68.91
2022-09-20T10:10:57.542Z,68.74
2022-09-20T10:11:57.543Z,69.07
2022-09-20T10:12:57.538Z,70.79
2022-09-20T10:13:57.483Z,70.59
2022-09-20T10:14:57.465Z,70.76
2022-09-20T10:15:57.460Z,71.67
2022-09-20T10:16:57.514Z,71.37
2022-09-20T10:17:57.411Z,71.47
2022-09-20T10:18:57.392Z,71.94
2022-09-20T10:19:57.368Z,72.55
2022-09-20T10:20:57.353Z,73.43
2022-09-20T10:21:57.357Z,71.80
2022-09-20T10:23:30.137Z,72.31
2022-09-20T10:24:03.490Z,71.50
2022-09-20T10:24:58.274Z,72.55
2022-09-20T10:25:57.249Z,72.65
2022-09-20T10:26:57.263Z,71.84
2022-09-20T10:27:57.214Z,72.45
2022-09-20T10:28:57.195Z,73.53
2022-09-20T10:29:57.174Z,73.32
2022-09-20T10:30:57.245Z,70.18
2022-09-20T10:31:57.161Z,72.14
2022-09-20T10:32:57.116Z,71.44
2022-09-20T10:33:57.097Z,70.96
2022-09-20T10:34:57.075Z,71.77
2022-09-20T10:35:57.056Z,70.79
2022-09-20T10:36:57.064Z,73.60
2022-09-20T10:37:57.012Z,73.49
2022-09-20T10:38:56.996Z,70.89
2022-09-20T10:39:57.014Z,71.20
2022-09-20T10:40:56.947Z,70.79
2022-09-20T10:41:56.955Z,70.69
2022-09-20T10:42:56.911Z,71.80
2022-09-20T10:43:59.389Z,72.41
2022-09-20T10:44:57.881Z,72.45
2022-09-20T10:46:27.635Z,73.26
2022-09-20T10:46:58.891Z,74.68
2022-09-20T10:47:56.802Z,73.77
2022-09-20T10:48:56.784Z,73.80
2022-09-20T10:49:56.765Z,74.41
2022-09-20T10:50:56.744Z,73.60
2022-09-20T10:51:56.752Z,73.53
2022-09-20T10:52:56.712Z,74.62
2022-09-20T10:53:56.679Z,73.94
2022-09-20T10:54:56.657Z,73.39
2022-09-20T10:55:56.643Z,73.39
2022-09-20T10:56:56.645Z,72.78
2022-09-20T10:57:56.595Z,74.10
2022-09-20T10:58:56.584Z,73.29
2022-09-20T10:59:56.551Z,73.39
2022-09-20T11:00:56.555Z,74.31
2022-09-20T11:01:56.574Z,73.39
2022-09-20T11:02:56.481Z,74.62
2022-09-20T11:03:56.463Z,75.02
2022-09-20T11:04:56.439Z,75.32
2022-09-20T11:05:56.420Z,75.46
2022-09-20T11:06:56.419Z,74.75
2022-09-20T11:07:56.377Z,75.19
2022-09-20T11:08:56.365Z,76.65
2022-09-20T11:09:56.327Z,76.04
2022-09-20T11:10:56.313Z,76.75
2022-09-20T11:11:56.319Z,76.86
2022-09-20T11:12:56.268Z,75.98
2022-09-20T11:13:56.246Z,75.77
2022-09-20T11:14:56.233Z,76.38
2022-09-20T11:15:56.210Z,76.34
2022-09-20T11:16:56.242Z,74.82
2022-09-20T11:17:56.151Z,74.92
2022-09-20T11:18:56.130Z,75.02
2022-09-20T11:19:56.108Z,75.02
2022-09-20T11:20:56.082Z,75.60
2022-09-20T11:21:56.086Z,75.46
2022-09-20T11:22:56.037Z,74.55
2022-09-20T11:23:56.049Z,73.22
2022-09-20T11:24:55.995Z,73.50
2022-09-20T11:25:55.969Z,72.78
2022-09-20T11:26:55.971Z,72.78
2022-09-20T11:27:55.927Z,73.36
2022-09-20T11:28:55.896Z,74.14
2022-09-20T11:29:56.880Z,72.75
2022-09-20T11:30:55.860Z,71.20
2022-09-20T11:31:55.947Z,74.38
2022-09-20T11:32:55.825Z,71.91
2022-09-20T11:33:55.828Z,71.33
2022-09-20T11:34:55.770Z,72.55
2022-09-20T11:35:55.764Z,72.45
2022-09-20T11:36:55.749Z,74.48
2022-09-20T11:37:55.697Z,72.17
2022-09-20T11:38:56.675Z,71.36
2022-09-20T11:39:55.655Z,70.86
2022-09-20T11:40:55.627Z,70.92
2022-09-20T11:41:55.632Z,70.83
2022-09-20T11:42:55.587Z,70.59
2022-09-20T11:43:55.565Z,70.15
2022-09-20T11:44:55.539Z,70.21
2022-09-20T11:45:55.610Z,71.44
2022-09-20T11:46:55.525Z,69.68
2022-09-20T11:47:55.969Z,69.78
2022-09-20T11:48:56.451Z,69.44
2022-09-20T11:49:55.435Z,66.67
2022-09-20T11:50:55.416Z,67.69
2022-09-20T11:51:55.414Z,66.58
2022-09-20T11:52:55.369Z,66.95
2022-09-20T11:53:55.348Z,66.55
2022-09-20T11:54:55.328Z,67.15
2022-09-20T11:55:55.301Z,68.67
2022-09-20T11:56:55.312Z,67.99
2022-09-20T11:57:55.286Z,67.69
2022-09-20T11:58:55.238Z,68.26
2022-09-20T11:59:55.214Z,67.55
2022-09-20T12:00:55.193Z,67.86
2022-09-20T12:01:55.240Z,67.15
2022-09-20T12:02:55.224Z,67.02
2022-09-20T12:04:14.190Z,66.95
2022-09-20T12:04:57.112Z,68.97
2022-09-20T12:05:55.085Z,68.40
2022-09-20T12:06:55.093Z,67.89
2022-09-20T12:07:55.040Z,66.17
2022-09-20T12:08:55.028Z,67.39
2022-09-20T12:09:54.997Z,67.18
2022-09-20T12:10:54.977Z,67.32
2022-09-20T12:11:54.984Z,68.16
2022-09-20T12:12:54.936Z,64.83
2022-09-20T12:13:54.944Z,65.94
2022-09-20T12:14:54.890Z,66.64
2022-09-20T12:15:54.871Z,65.36
2022-09-20T12:16:54.920Z,68.19
2022-09-20T12:17:54.835Z,68.33
2022-09-20T12:18:54.809Z,68.53
2022-09-20T12:19:54.781Z,68.53
2022-09-20T12:20:54.767Z,67.79
2022-09-20T12:21:54.763Z,67.35
2022-09-20T12:22:54.717Z,66.91
2022-09-20T12:23:54.710Z,65.56
2022-09-20T12:24:54.757Z,67.11
2022-09-20T12:25:54.653Z,67.01
2022-09-20T12:26:54.659Z,66.71
2022-09-20T12:27:54.610Z,66.50
2022-09-20T12:28:54.607Z,67.32
2022-09-20T12:29:54.566Z,68.53
2022-09-20T12:30:54.545Z,67.76
2022-09-20T12:31:54.604Z,68.16
2022-09-20T12:32:54.496Z,68.26
2022-09-20T12:33:55.480Z,68.26
2022-09-20T12:34:54.455Z,67.85
2022-09-20T12:35:54.438Z,66.64
2022-09-20T12:36:54.445Z,66.64
2022-09-20T12:37:54.395Z,66.54
2022-09-20T12:38:54.377Z,67.42
2022-09-20T12:39:54.354Z,67.99
2022-09-20T12:40:54.336Z,67.08
2022-09-20T12:41:54.340Z,65.77
2022-09-20T12:42:54.295Z,67.46
2022-09-20T12:43:54.307Z,65.13
2022-09-20T12:44:55.251Z,65.03
2022-09-20T12:45:54.287Z,64.39
2022-09-20T12:46:54.236Z,65.91
2022-09-20T12:47:54.186Z,65.67
2022-09-20T12:48:54.169Z,65.78
2022-09-20T12:49:54.143Z,64.36
2022-09-20T12:50:54.121Z,65.37
2022-09-20T12:51:54.125Z,63.65
2022-09-20T12:52:54.264Z,64.87
2022-09-20T12:53:54.061Z,64.13